TimeMST,TemperatureF,Dew PointF,Humidity,Sea Level PressureIn,VisibilityMPH,Wind Direction,Wind SpeedMPH,Gust SpeedMPH,PrecipitationIn,Events,Conditions,WindDirDegrees,DateUTC
12:56 AM,15.1,10.0,80,29.99,-9999.0,West,8.1,-,N/A,,Unknown,270,2014-02-21 07:56:00
1:56 AM,10.9,7.0,84,30.02,-9999.0,WNW,3.5,-,N/A,,Unknown,290,2014-02-21 08:56:00
2:56 AM,6.1,3.0,87,30.04,-9999.0,Variable,4.6,-,N/A,,Unknown,0,2014-02-21 09:56:00
3:56 AM,9.0,6.1,88,30.02,-9999.0,Calm,Calm,-,N/A,,Unknown,0,2014-02-21 10:56:00
4:56 AM,12.0,7.0,80,29.99,-9999.0,Calm,Calm,-,N/A,,Unknown,0,2014-02-21 11:56:00
5:56 AM,12.0,6.1,77,29.98,-9999.0,Variable,5.8,-,N/A,,Unknown,0,2014-02-21 12:56:00
6:56 AM,14.0,9.0,80,29.95,-9999.0,Variable,6.9,-,N/A,,Unknown,0,2014-02-21 13:56:00
7:56 AM,15.1,10.0,80,29.93,-9999.0,Variable,6.9,-,N/A,,Unknown,0,2014-02-21 14:56:00
8:56 AM,18.0,10.9,74,29.91,-9999.0,Variable,6.9,-,N/A,,Unknown,0,2014-02-21 15:56:00
9:56 AM,19.0,12.0,74,29.90,-9999.0,West,10.4,20.7,0.01,,Unknown,270,2014-02-21 16:56:00
10:56 AM,21.0,10.9,65,29.89,-9999.0,West,12.7,28.8,N/A,,Unknown,280,2014-02-21 17:56:00
11:56 AM,21.9,10.0,60,29.89,-9999.0,West,11.5,25.3,0.01,,Unknown,280,2014-02-21 18:56:00
12:56 PM,21.0,10.9,65,29.91,-9999.0,West,8.1,23.0,0.01,,Unknown,260,2014-02-21 19:56:00
1:56 PM,23.0,9.0,55,29.90,-9999.0,West,13.8,36.8,N/A,,Unknown,270,2014-02-21 20:56:00
2:56 PM,23.0,6.1,48,29.92,-9999.0,West,18.4,32.2,N/A,,Unknown,270,2014-02-21 21:56:00
3:56 PM,21.9,6.1,51,29.92,-9999.0,West,17.3,31.1,N/A,,Unknown,270,2014-02-21 22:56:00
4:56 PM,21.0,3.0,46,29.91,-9999.0,West,9.2,19.6,N/A,,Unknown,270,2014-02-21 23:56:00
5:56 PM,19.9,3.0,48,29.91,-9999.0,West,9.2,-,N/A,,Unknown,260,2014-02-22 00:56:00
6:56 PM,18.0,3.9,54,29.92,-9999.0,Variable,5.8,-,N/A,,Unknown,0,2014-02-22 01:56:00
7:56 PM,17.1,3.0,54,29.93,-9999.0,Variable,5.8,-,N/A,,Unknown,0,2014-02-22 02:56:00
8:56 PM,10.0,3.9,76,29.96,-9999.0,Calm,Calm,-,N/A,,Unknown,0,2014-02-22 03:56:00
9:56 PM,5.0,-0.0,80,29.98,-9999.0,Calm,Calm,-,N/A,,Unknown,0,2014-02-22 04:56:00
10:56 PM,3.0,-0.9,84,29.98,-9999.0,Calm,Calm,-,N/A,,Unknown,0,2014-02-22 05:56:00
11:56 PM,3.0,-2.0,80,29.96,-9999.0,Variable,3.5,-,N/A,,Unknown,0,2014-02-22 06:56:00